sensor_id;sensor_type;location;lat;lon;timestamp;temperature;humidity
46319;DHT22;32042;50.916;2.926;2023-03-14T00:01:22;9.80;99.90
46319;DHT22;32042;50.916;2.926;2023-03-14T00:03:48;9.80;99.90
46319;DHT22;32042;50.916;2.926;2023-03-14T00:06:14;9.80;99.90
46319;DHT22;32042;50.916;2.926;2023-03-14T00:08:41;9.80;99.90
46319;DHT22;32042;50.916;2.926;2023-03-14T00:11:12;9.80;99.90
46319;DHT22;32042;50.916;2.926;2023-03-14T00:13:39;9.80;99.90
46319;DHT22;32042;50.916;2.926;2023-03-14T00:16:07;9.80;99.90
46319;DHT22;32042;50.916;2.926;2023-03-14T00:18:33;9.80;99.90
46319;DHT22;32042;50.916;2.926;2023-03-14T00:21:00;9.90;99.90
46319;DHT22;32042;50.916;2.926;2023-03-14T00:23:27;9.90;99.90
46319;DHT22;32042;50.916;2.926;2023-03-14T00:25:53;9.90;99.90
46319;DHT22;32042;50.916;2.926;2023-03-14T00:28:19;10.00;99.90
46319;DHT22;32042;50.916;2.926;2023-03-14T00:30:45;10.00;99.90
46319;DHT22;32042;50.916;2.926;2023-03-14T00:33:10;10.00;99.90
46319;DHT22;32042;50.916;2.926;2023-03-14T00:35:36;10.00;99.90
46319;DHT22;32042;50.916;2.926;2023-03-14T00:38:01;10.00;99.90
46319;DHT22;32042;50.916;2.926;2023-03-14T00:40:27;10.00;99.90
46319;DHT22;32042;50.916;2.926;2023-03-14T00:42:53;10.10;99.90
46319;DHT22;32042;50.916;2.926;2023-03-14T00:45:19;10.10;99.90
46319;DHT22;32042;50.916;2.926;2023-03-14T00:47:44;10.10;99.90
46319;DHT22;32042;50.916;2.926;2023-03-14T00:50:11;10.10;99.90
46319;DHT22;32042;50.916;2.926;2023-03-14T00:52:37;10.10;99.90
46319;DHT22;32042;50.916;2.926;2023-03-14T00:55:03;10.20;99.90
46319;DHT22;32042;50.916;2.926;2023-03-14T00:57:29;10.20;99.90
46319;DHT22;32042;50.916;2.926;2023-03-14T00:59:55;10.20;99.90
46319;DHT22;32042;50.916;2.926;2023-03-14T01:02:20;10.20;99.90
46319;DHT22;32042;50.916;2.926;2023-03-14T01:04:49;10.20;99.90
46319;DHT22;32042;50.916;2.926;2023-03-14T01:07:15;10.20;99.90
46319;DHT22;32042;50.916;2.926;2023-03-14T01:09:41;10.10;99.90
46319;DHT22;32042;50.916;2.926;2023-03-14T01:12:07;10.10;99.90
46319;DHT22;32042;50.916;2.926;2023-03-14T01:14:32;10.10;99.90
46319;DHT22;32042;50.916;2.926;2023-03-14T01:16:58;10.10;99.90
46319;DHT22;32042;50.916;2.926;2023-03-14T01:19:28;10.10;99.90
46319;DHT22;32042;50.916;2.926;2023-03-14T01:21:54;10.10;99.90
46319;DHT22;32042;50.916;2.926;2023-03-14T01:24:19;10.10;99.90
46319;DHT22;32042;50.916;2.926;2023-03-14T01:26:46;10.10;99.90
46319;DHT22;32042;50.916;2.926;2023-03-14T01:29:12;10.10;99.90
46319;DHT22;32042;50.916;2.926;2023-03-14T01:31:38;10.10;99.90
46319;DHT22;32042;50.916;2.926;2023-03-14T01:34:04;10.10;99.90
46319;DHT22;32042;50.916;2.926;2023-03-14T01:36:29;10.10;99.90
46319;DHT22;32042;50.916;2.926;2023-03-14T01:38:55;10.10;99.90
46319;DHT22;32042;50.916;2.926;2023-03-14T01:41:23;10.10;99.90
46319;DHT22;32042;50.916;2.926;2023-03-14T01:43:50;10.10;99.90
46319;DHT22;32042;50.916;2.926;2023-03-14T01:46:40;10.10;99.90
46319;DHT22;32042;50.916;2.926;2023-03-14T01:54:34;10.10;99.90
46319;DHT22;32042;50.916;2.926;2023-03-14T01:59:40;10.00;99.90
46319;DHT22;32042;50.916;2.926;2023-03-14T02:02:09;10.00;99.90
46319;DHT22;32042;50.916;2.926;2023-03-14T02:04:38;10.00;99.90
46319;DHT22;32042;50.916;2.926;2023-03-14T02:09:39;9.90;99.90
46319;DHT22;32042;50.916;2.926;2023-03-14T02:12:07;9.90;99.90
46319;DHT22;32042;50.916;2.926;2023-03-14T02:14:34;9.90;99.90
46319;DHT22;32042;50.916;2.926;2023-03-14T02:17:02;9.90;99.90
46319;DHT22;32042;50.916;2.926;2023-03-14T02:20:03;9.90;99.90
46319;DHT22;32042;50.916;2.926;2023-03-14T02:22:31;9.90;99.90
46319;DHT22;32042;50.916;2.926;2023-03-14T02:25:06;9.90;99.90
46319;DHT22;32042;50.916;2.926;2023-03-14T02:27:34;9.90;99.90
46319;DHT22;32042;50.916;2.926;2023-03-14T02:32:29;9.90;99.90
46319;DHT22;32042;50.916;2.926;2023-03-14T02:34:58;9.90;99.90
46319;DHT22;32042;50.916;2.926;2023-03-14T02:37:36;9.90;99.90
46319;DHT22;32042;50.916;2.926;2023-03-14T02:40:05;9.90;99.90
46319;DHT22;32042;50.916;2.926;2023-03-14T02:42:32;9.90;99.90
46319;DHT22;32042;50.916;2.926;2023-03-14T02:47:40;9.90;99.90
46319;DHT22;32042;50.916;2.926;2023-03-14T02:50:15;9.90;99.90
46319;DHT22;32042;50.916;2.926;2023-03-14T02:52:43;9.90;99.90
46319;DHT22;32042;50.916;2.926;2023-03-14T02:55:10;9.90;99.90
46319;DHT22;32042;50.916;2.926;2023-03-14T02:57:35;9.90;99.90
46319;DHT22;32042;50.916;2.926;2023-03-14T03:00:02;9.80;99.90
46319;DHT22;32042;50.916;2.926;2023-03-14T03:02:31;9.80;99.90
46319;DHT22;32042;50.916;2.926;2023-03-14T03:04:57;9.90;99.90
46319;DHT22;32042;50.916;2.926;2023-03-14T03:07:24;9.90;99.90
46319;DHT22;32042;50.916;2.926;2023-03-14T03:09:49;9.90;99.90
46319;DHT22;32042;50.916;2.926;2023-03-14T03:12:15;9.90;99.90
46319;DHT22;32042;50.916;2.926;2023-03-14T03:14:41;9.80;99.90
46319;DHT22;32042;50.916;2.926;2023-03-14T03:17:07;9.80;99.90
46319;DHT22;32042;50.916;2.926;2023-03-14T03:19:33;9.90;99.90
46319;DHT22;32042;50.916;2.926;2023-03-14T03:21:59;9.90;99.90
46319;DHT22;32042;50.916;2.926;2023-03-14T03:24:26;9.90;99.90
46319;DHT22;32042;50.916;2.926;2023-03-14T03:26:51;9.90;99.90
46319;DHT22;32042;50.916;2.926;2023-03-14T03:29:17;9.90;99.90
46319;DHT22;32042;50.916;2.926;2023-03-14T03:31:43;9.90;99.90
46319;DHT22;32042;50.916;2.926;2023-03-14T03:34:11;9.90;99.90
46319;DHT22;32042;50.916;2.926;2023-03-14T03:36:37;9.90;99.90
46319;DHT22;32042;50.916;2.926;2023-03-14T03:39:03;9.90;99.90
46319;DHT22;32042;50.916;2.926;2023-03-14T03:41:29;9.90;99.90
46319;DHT22;32042;50.916;2.926;2023-03-14T03:43:55;9.90;99.90
46319;DHT22;32042;50.916;2.926;2023-03-14T03:46:21;9.90;99.90
46319;DHT22;32042;50.916;2.926;2023-03-14T03:48:47;9.90;99.90
46319;DHT22;32042;50.916;2.926;2023-03-14T03:51:15;9.90;99.90
46319;DHT22;32042;50.916;2.926;2023-03-14T03:53:41;9.90;99.90
46319;DHT22;32042;50.916;2.926;2023-03-14T03:56:08;9.90;99.90
46319;DHT22;32042;50.916;2.926;2023-03-14T03:58:34;10.00;99.90
46319;DHT22;32042;50.916;2.926;2023-03-14T04:01:00;10.00;99.90
46319;DHT22;32042;50.916;2.926;2023-03-14T04:03:26;10.00;99.90
46319;DHT22;32042;50.916;2.926;2023-03-14T04:06:04;10.00;99.90
46319;DHT22;32042;50.916;2.926;2023-03-14T04:08:30;10.00;99.90
46319;DHT22;32042;50.916;2.926;2023-03-14T04:11:00;10.00;99.90
46319;DHT22;32042;50.916;2.926;2023-03-14T04:13:26;10.00;99.90
46319;DHT22;32042;50.916;2.926;2023-03-14T04:15:53;10.00;99.90
46319;DHT22;32042;50.916;2.926;2023-03-14T04:18:19;10.00;99.90
46319;DHT22;32042;50.916;2.926;2023-03-14T04:20:45;10.00;99.90
46319;DHT22;32042;50.916;2.926;2023-03-14T04:23:11;10.00;99.90
46319;DHT22;32042;50.916;2.926;2023-03-14T04:25:37;10.00;99.90
46319;DHT22;32042;50.916;2.926;2023-03-14T04:28:02;10.00;99.90
46319;DHT22;32042;50.916;2.926;2023-03-14T04:30:29;10.00;99.90
46319;DHT22;32042;50.916;2.926;2023-03-14T04:32:55;10.00;99.90
46319;DHT22;32042;50.916;2.926;2023-03-14T04:35:21;9.90;99.90
46319;DHT22;32042;50.916;2.926;2023-03-14T04:37:46;10.00;99.90
46319;DHT22;32042;50.916;2.926;2023-03-14T04:40:14;9.90;99.90
46319;DHT22;32042;50.916;2.926;2023-03-14T04:42:40;9.90;99.90
46319;DHT22;32042;50.916;2.926;2023-03-14T04:45:07;9.90;99.90
46319;DHT22;32042;50.916;2.926;2023-03-14T04:47:33;9.90;99.90
46319;DHT22;32042;50.916;2.926;2023-03-14T04:49:58;9.90;99.90
46319;DHT22;32042;50.916;2.926;2023-03-14T04:52:25;9.80;99.90
46319;DHT22;32042;50.916;2.926;2023-03-14T04:54:50;9.80;99.90
46319;DHT22;32042;50.916;2.926;2023-03-14T04:57:16;9.80;99.90
46319;DHT22;32042;50.916;2.926;2023-03-14T04:59:41;9.50;99.90
46319;DHT22;32042;50.916;2.926;2023-03-14T05:02:07;9.20;99.90
46319;DHT22;32042;50.916;2.926;2023-03-14T05:04:33;8.90;99.90
46319;DHT22;32042;50.916;2.926;2023-03-14T05:06:59;8.70;99.90
46319;DHT22;32042;50.916;2.926;2023-03-14T05:09:25;8.60;99.90
46319;DHT22;32042;50.916;2.926;2023-03-14T05:11:51;8.30;99.90
46319;DHT22;32042;50.916;2.926;2023-03-14T05:14:17;8.30;99.90
46319;DHT22;32042;50.916;2.926;2023-03-14T05:16:43;8.20;99.90
46319;DHT22;32042;50.916;2.926;2023-03-14T05:19:09;8.10;99.90
46319;DHT22;32042;50.916;2.926;2023-03-14T05:21:35;8.00;99.90
46319;DHT22;32042;50.916;2.926;2023-03-14T05:24:01;8.00;99.90
46319;DHT22;32042;50.916;2.926;2023-03-14T05:26:26;7.90;99.90
46319;DHT22;32042;50.916;2.926;2023-03-14T05:28:52;7.90;99.90
46319;DHT22;32042;50.916;2.926;2023-03-14T05:31:18;7.80;99.90
46319;DHT22;32042;50.916;2.926;2023-03-14T05:33:43;7.80;99.90
46319;DHT22;32042;50.916;2.926;2023-03-14T05:36:10;7.80;99.90
46319;DHT22;32042;50.916;2.926;2023-03-14T05:38:36;7.70;99.90
46319;DHT22;32042;50.916;2.926;2023-03-14T05:41:02;7.70;99.90
46319;DHT22;32042;50.916;2.926;2023-03-14T05:43:27;7.70;99.90
46319;DHT22;32042;50.916;2.926;2023-03-14T05:45:53;7.70;99.90
46319;DHT22;32042;50.916;2.926;2023-03-14T05:48:19;7.60;99.90
46319;DHT22;32042;50.916;2.926;2023-03-14T05:50:44;7.60;99.90
46319;DHT22;32042;50.916;2.926;2023-03-14T05:53:10;7.60;99.90
46319;DHT22;32042;50.916;2.926;2023-03-14T05:55:36;7.60;99.90
46319;DHT22;32042;50.916;2.926;2023-03-14T05:58:01;7.50;99.90
46319;DHT22;32042;50.916;2.926;2023-03-14T06:00:27;7.50;99.90
46319;DHT22;32042;50.916;2.926;2023-03-14T06:02:53;7.50;99.90
46319;DHT22;32042;50.916;2.926;2023-03-14T06:05:18;7.50;99.90
46319;DHT22;32042;50.916;2.926;2023-03-14T06:07:44;7.50;99.90
46319;DHT22;32042;50.916;2.926;2023-03-14T06:10:10;7.50;99.90
46319;DHT22;32042;50.916;2.926;2023-03-14T06:12:36;7.40;99.90
46319;DHT22;32042;50.916;2.926;2023-03-14T06:15:01;7.40;99.90
46319;DHT22;32042;50.916;2.926;2023-03-14T06:17:27;7.40;99.90
46319;DHT22;32042;50.916;2.926;2023-03-14T06:19:53;7.40;99.90
46319;DHT22;32042;50.916;2.926;2023-03-14T06:22:18;7.30;99.90
46319;DHT22;32042;50.916;2.926;2023-03-14T06:24:45;7.20;99.90
46319;DHT22;32042;50.916;2.926;2023-03-14T06:27:10;7.20;99.90
46319;DHT22;32042;50.916;2.926;2023-03-14T06:29:36;7.20;99.90
46319;DHT22;32042;50.916;2.926;2023-03-14T06:32:02;7.10;99.90
46319;DHT22;32042;50.916;2.926;2023-03-14T06:34:27;7.10;99.90
46319;DHT22;32042;50.916;2.926;2023-03-14T06:36:53;7.00;99.90
46319;DHT22;32042;50.916;2.926;2023-03-14T06:39:19;7.00;99.90
46319;DHT22;32042;50.916;2.926;2023-03-14T06:41:45;7.10;99.90
46319;DHT22;32042;50.916;2.926;2023-03-14T06:44:11;7.10;99.90
46319;DHT22;32042;50.916;2.926;2023-03-14T06:46:36;7.10;99.90
46319;DHT22;32042;50.916;2.926;2023-03-14T06:49:02;7.00;99.90
46319;DHT22;32042;50.916;2.926;2023-03-14T06:51:28;7.00;99.90
46319;DHT22;32042;50.916;2.926;2023-03-14T06:53:54;7.00;99.90
46319;DHT22;32042;50.916;2.926;2023-03-14T06:56:19;7.00;99.90
46319;DHT22;32042;50.916;2.926;2023-03-14T06:58:45;7.00;99.90
46319;DHT22;32042;50.916;2.926;2023-03-14T07:01:23;7.00;99.90
46319;DHT22;32042;50.916;2.926;2023-03-14T07:03:49;6.90;99.90
46319;DHT22;32042;50.916;2.926;2023-03-14T07:06:15;6.90;99.90
46319;DHT22;32042;50.916;2.926;2023-03-14T07:08:40;6.90;99.90
46319;DHT22;32042;50.916;2.926;2023-03-14T07:11:07;6.90;99.90
46319;DHT22;32042;50.916;2.926;2023-03-14T07:13:33;6.90;99.90
46319;DHT22;32042;50.916;2.926;2023-03-14T07:15:58;6.90;99.90
46319;DHT22;32042;50.916;2.926;2023-03-14T07:18:24;6.80;99.90
46319;DHT22;32042;50.916;2.926;2023-03-14T07:20:50;6.80;99.90
46319;DHT22;32042;50.916;2.926;2023-03-14T07:23:15;6.80;99.90
46319;DHT22;32042;50.916;2.926;2023-03-14T07:25:41;6.80;99.90
46319;DHT22;32042;50.916;2.926;2023-03-14T07:28:07;6.80;99.90
46319;DHT22;32042;50.916;2.926;2023-03-14T07:30:32;6.80;99.90
46319;DHT22;32042;50.916;2.926;2023-03-14T07:32:58;6.80;99.90
46319;DHT22;32042;50.916;2.926;2023-03-14T07:35:24;6.70;99.90
46319;DHT22;32042;50.916;2.926;2023-03-14T07:37:49;6.70;99.90
46319;DHT22;32042;50.916;2.926;2023-03-14T07:40:15;6.70;99.90
46319;DHT22;32042;50.916;2.926;2023-03-14T07:42:42;6.60;99.90
46319;DHT22;32042;50.916;2.926;2023-03-14T07:45:09;6.60;99.90
46319;DHT22;32042;50.916;2.926;2023-03-14T07:47:35;6.60;99.90
46319;DHT22;32042;50.916;2.926;2023-03-14T07:50:02;6.60;99.90
46319;DHT22;32042;50.916;2.926;2023-03-14T07:52:28;6.60;99.90
46319;DHT22;32042;50.916;2.926;2023-03-14T07:54:53;6.60;99.90
46319;DHT22;32042;50.916;2.926;2023-03-14T07:57:19;6.60;99.90
46319;DHT22;32042;50.916;2.926;2023-03-14T07:59:44;6.60;99.90
46319;DHT22;32042;50.916;2.926;2023-03-14T08:02:11;6.60;99.90
46319;DHT22;32042;50.916;2.926;2023-03-14T08:04:38;6.60;99.90
46319;DHT22;32042;50.916;2.926;2023-03-14T08:07:04;6.60;99.90
46319;DHT22;32042;50.916;2.926;2023-03-14T08:09:29;6.60;99.90
46319;DHT22;32042;50.916;2.926;2023-03-14T08:11:55;6.60;99.90
46319;DHT22;32042;50.916;2.926;2023-03-14T08:14:21;6.60;99.90
46319;DHT22;32042;50.916;2.926;2023-03-14T08:16:49;6.50;99.90
46319;DHT22;32042;50.916;2.926;2023-03-14T08:19:15;6.60;99.90
46319;DHT22;32042;50.916;2.926;2023-03-14T08:21:41;6.60;99.90
46319;DHT22;32042;50.916;2.926;2023-03-14T08:24:07;6.60;99.90
46319;DHT22;32042;50.916;2.926;2023-03-14T08:26:32;6.60;99.90
46319;DHT22;32042;50.916;2.926;2023-03-14T08:28:58;6.60;99.90
46319;DHT22;32042;50.916;2.926;2023-03-14T08:31:24;6.60;99.90
46319;DHT22;32042;50.916;2.926;2023-03-14T08:33:50;6.60;99.90
46319;DHT22;32042;50.916;2.926;2023-03-14T08:36:18;6.60;99.90
46319;DHT22;32042;50.916;2.926;2023-03-14T08:38:44;6.70;99.90
46319;DHT22;32042;50.916;2.926;2023-03-14T08:41:09;6.70;99.90
46319;DHT22;32042;50.916;2.926;2023-03-14T08:43:35;6.70;99.90
46319;DHT22;32042;50.916;2.926;2023-03-14T08:46:02;6.70;99.90
46319;DHT22;32042;50.916;2.926;2023-03-14T08:48:29;6.80;99.90
46319;DHT22;32042;50.916;2.926;2023-03-14T08:50:57;6.80;99.90
46319;DHT22;32042;50.916;2.926;2023-03-14T08:53:29;6.80;99.90
46319;DHT22;32042;50.916;2.926;2023-03-14T08:55:54;6.90;99.90
46319;DHT22;32042;50.916;2.926;2023-03-14T08:58:20;6.90;99.90
46319;DHT22;32042;50.916;2.926;2023-03-14T09:00:48;7.00;99.90
46319;DHT22;32042;50.916;2.926;2023-03-14T09:03:13;7.10;99.90
46319;DHT22;32042;50.916;2.926;2023-03-14T09:05:40;7.20;99.90
46319;DHT22;32042;50.916;2.926;2023-03-14T09:08:05;7.30;99.90
46319;DHT22;32042;50.916;2.926;2023-03-14T09:10:31;7.40;99.90
46319;DHT22;32042;50.916;2.926;2023-03-14T09:12:57;7.40;99.90
46319;DHT22;32042;50.916;2.926;2023-03-14T09:15:24;7.50;99.90
46319;DHT22;32042;50.916;2.926;2023-03-14T09:17:49;7.40;99.90
46319;DHT22;32042;50.916;2.926;2023-03-14T09:20:15;7.40;99.90
46319;DHT22;32042;50.916;2.926;2023-03-14T09:22:41;7.30;99.90
46319;DHT22;32042;50.916;2.926;2023-03-14T09:25:07;7.30;99.90
46319;DHT22;32042;50.916;2.926;2023-03-14T09:27:33;7.30;99.90
46319;DHT22;32042;50.916;2.926;2023-03-14T09:29:59;7.20;99.90
46319;DHT22;32042;50.916;2.926;2023-03-14T09:32:24;7.20;99.90
46319;DHT22;32042;50.916;2.926;2023-03-14T09:34:50;7.20;99.90
46319;DHT22;32042;50.916;2.926;2023-03-14T09:37:16;7.20;99.90
46319;DHT22;32042;50.916;2.926;2023-03-14T09:39:42;7.20;99.90
46319;DHT22;32042;50.916;2.926;2023-03-14T09:42:13;7.10;99.90
46319;DHT22;32042;50.916;2.926;2023-03-14T09:44:47;7.20;99.90
46319;DHT22;32042;50.916;2.926;2023-03-14T09:47:16;7.10;99.90
46319;DHT22;32042;50.916;2.926;2023-03-14T09:49:45;7.10;99.90
46319;DHT22;32042;50.916;2.926;2023-03-14T09:52:26;7.10;99.90
46319;DHT22;32042;50.916;2.926;2023-03-14T09:54:57;7.00;99.90
46319;DHT22;32042;50.916;2.926;2023-03-14T09:57:25;6.90;99.90
46319;DHT22;32042;50.916;2.926;2023-03-14T09:59:57;6.90;99.90
46319;DHT22;32042;50.916;2.926;2023-03-14T10:02:27;6.80;99.90
46319;DHT22;32042;50.916;2.926;2023-03-14T10:04:54;6.80;99.90
46319;DHT22;32042;50.916;2.926;2023-03-14T10:07:28;6.80;99.90
46319;DHT22;32042;50.916;2.926;2023-03-14T10:09:55;6.70;99.90
46319;DHT22;32042;50.916;2.926;2023-03-14T10:12:33;6.70;99.90
46319;DHT22;32042;50.916;2.926;2023-03-14T10:15:07;6.50;99.90
46319;DHT22;32042;50.916;2.926;2023-03-14T10:17:41;6.50;99.90
46319;DHT22;32042;50.916;2.926;2023-03-14T10:23:18;6.50;99.90
46319;DHT22;32042;50.916;2.926;2023-03-14T10:25:46;6.50;99.90
46319;DHT22;32042;50.916;2.926;2023-03-14T10:28:24;6.40;99.90
46319;DHT22;32042;50.916;2.926;2023-03-14T10:30:51;6.30;99.90
46319;DHT22;32042;50.916;2.926;2023-03-14T10:33:22;6.20;99.90
46319;DHT22;32042;50.916;2.926;2023-03-14T10:36:00;6.20;99.90
46319;DHT22;32042;50.916;2.926;2023-03-14T10:38:35;6.00;99.90
46319;DHT22;32042;50.916;2.926;2023-03-14T10:41:02;6.00;99.90
46319;DHT22;32042;50.916;2.926;2023-03-14T10:43:32;5.90;99.90
46319;DHT22;32042;50.916;2.926;2023-03-14T10:46:23;5.90;99.90
46319;DHT22;32042;50.916;2.926;2023-03-14T10:48:47;5.90;99.90
46319;DHT22;32042;50.916;2.926;2023-03-14T10:51:27;5.80;99.90
46319;DHT22;32042;50.916;2.926;2023-03-14T10:54:19;5.80;99.90
46319;DHT22;32042;50.916;2.926;2023-03-14T10:56:45;5.60;99.90
46319;DHT22;32042;50.916;2.926;2023-03-14T10:59:21;5.50;99.90
46319;DHT22;32042;50.916;2.926;2023-03-14T11:07:12;5.30;99.90
46319;DHT22;32042;50.916;2.926;2023-03-14T11:20:44;5.10;99.90
46319;DHT22;32042;50.916;2.926;2023-03-14T11:23:32;5.10;99.90
46319;DHT22;32042;50.916;2.926;2023-03-14T11:28:39;5.20;99.90
46319;DHT22;32042;50.916;2.926;2023-03-14T11:36:51;5.30;99.90
46319;DHT22;32042;50.916;2.926;2023-03-14T11:39:18;5.40;99.90
46319;DHT22;32042;50.916;2.926;2023-03-14T11:41:49;5.40;99.90
46319;DHT22;32042;50.916;2.926;2023-03-14T11:46:50;5.50;99.90
46319;DHT22;32042;50.916;2.926;2023-03-14T11:49:35;5.50;99.90
46319;DHT22;32042;50.916;2.926;2023-03-14T11:55:13;5.50;99.90
46319;DHT22;32042;50.916;2.926;2023-03-14T11:57:42;5.50;99.90
46319;DHT22;32042;50.916;2.926;2023-03-14T12:00:20;5.50;99.90
46319;DHT22;32042;50.916;2.926;2023-03-14T12:03:00;5.50;99.90
46319;DHT22;32042;50.916;2.926;2023-03-14T12:11:13;5.40;99.90
46319;DHT22;32042;50.916;2.926;2023-03-14T12:13:41;5.40;99.90
46319;DHT22;32042;50.916;2.926;2023-03-14T12:18:52;5.50;99.90
46319;DHT22;32042;50.916;2.926;2023-03-14T12:21:19;5.50;99.90
46319;DHT22;32042;50.916;2.926;2023-03-14T12:23:54;5.60;99.90
46319;DHT22;32042;50.916;2.926;2023-03-14T12:29:09;5.60;99.90
46319;DHT22;32042;50.916;2.926;2023-03-14T12:31:45;5.70;99.90
46319;DHT22;32042;50.916;2.926;2023-03-14T12:44:49;5.30;99.90
46319;DHT22;32042;50.916;2.926;2023-03-14T12:49:54;5.30;99.90
46319;DHT22;32042;50.916;2.926;2023-03-14T12:52:36;5.30;99.90
46319;DHT22;32042;50.916;2.926;2023-03-14T12:55:29;5.20;99.90
46319;DHT22;32042;50.916;2.926;2023-03-14T12:58:27;5.10;99.90
46319;DHT22;32042;50.916;2.926;2023-03-14T13:00:59;5.10;99.90
46319;DHT22;32042;50.916;2.926;2023-03-14T13:03:42;5.10;99.90
46319;DHT22;32042;50.916;2.926;2023-03-14T13:06:10;5.00;99.90
46319;DHT22;32042;50.916;2.926;2023-03-14T13:08:42;5.00;99.90
46319;DHT22;32042;50.916;2.926;2023-03-14T13:11:19;5.10;99.90
46319;DHT22;32042;50.916;2.926;2023-03-14T13:13:48;5.10;99.90
46319;DHT22;32042;50.916;2.926;2023-03-14T13:16:17;5.20;99.90
46319;DHT22;32042;50.916;2.926;2023-03-14T13:18:46;5.20;99.90
46319;DHT22;32042;50.916;2.926;2023-03-14T13:21:22;5.30;99.90
46319;DHT22;32042;50.916;2.926;2023-03-14T13:23:56;5.30;99.90
46319;DHT22;32042;50.916;2.926;2023-03-14T13:26:24;5.40;99.90
46319;DHT22;32042;50.916;2.926;2023-03-14T13:28:51;5.40;99.90
46319;DHT22;32042;50.916;2.926;2023-03-14T13:31:23;5.40;99.90
46319;DHT22;32042;50.916;2.926;2023-03-14T13:34:00;5.40;99.90
46319;DHT22;32042;50.916;2.926;2023-03-14T13:36:27;5.40;99.90
46319;DHT22;32042;50.916;2.926;2023-03-14T13:38:58;5.40;99.90
46319;DHT22;32042;50.916;2.926;2023-03-14T13:41:24;5.40;99.90
46319;DHT22;32042;50.916;2.926;2023-03-14T13:43:51;5.30;99.90
46319;DHT22;32042;50.916;2.926;2023-03-14T13:46:21;5.20;99.90
46319;DHT22;32042;50.916;2.926;2023-03-14T13:48:50;5.10;99.90
46319;DHT22;32042;50.916;2.926;2023-03-14T13:51:19;5.00;99.90
46319;DHT22;32042;50.916;2.926;2023-03-14T13:53:51;4.80;99.90
46319;DHT22;32042;50.916;2.926;2023-03-14T13:56:19;4.60;99.90
46319;DHT22;32042;50.916;2.926;2023-03-14T13:58:46;4.60;99.90
46319;DHT22;32042;50.916;2.926;2023-03-14T14:01:28;4.50;99.90
46319;DHT22;32042;50.916;2.926;2023-03-14T14:03:58;4.50;99.90
46319;DHT22;32042;50.916;2.926;2023-03-14T14:08:57;4.50;99.90
46319;DHT22;32042;50.916;2.926;2023-03-14T14:11:41;4.60;99.90
46319;DHT22;32042;50.916;2.926;2023-03-14T14:14:12;4.60;99.90
46319;DHT22;32042;50.916;2.926;2023-03-14T14:16:40;4.60;99.90
46319;DHT22;32042;50.916;2.926;2023-03-14T14:19:07;4.70;99.90
46319;DHT22;32042;50.916;2.926;2023-03-14T14:21:32;4.70;99.90
46319;DHT22;32042;50.916;2.926;2023-03-14T14:23:59;4.70;99.90
46319;DHT22;32042;50.916;2.926;2023-03-14T14:26:26;4.80;99.90
46319;DHT22;32042;50.916;2.926;2023-03-14T14:29:04;4.80;99.90
46319;DHT22;32042;50.916;2.926;2023-03-14T14:31:30;4.90;99.90
46319;DHT22;32042;50.916;2.926;2023-03-14T14:34:02;5.00;99.90
46319;DHT22;32042;50.916;2.926;2023-03-14T14:36:39;5.20;99.90
46319;DHT22;32042;50.916;2.926;2023-03-14T14:39:17;5.20;99.90
46319;DHT22;32042;50.916;2.926;2023-03-14T14:41:43;5.40;99.90
46319;DHT22;32042;50.916;2.926;2023-03-14T14:44:13;5.40;99.90
46319;DHT22;32042;50.916;2.926;2023-03-14T14:46:42;5.50;99.90
46319;DHT22;32042;50.916;2.926;2023-03-14T14:49:14;5.60;99.90
46319;DHT22;32042;50.916;2.926;2023-03-14T14:51:43;5.70;99.90
46319;DHT22;32042;50.916;2.926;2023-03-14T14:54:15;5.90;99.90
46319;DHT22;32042;50.916;2.926;2023-03-14T14:56:50;6.00;99.90
46319;DHT22;32042;50.916;2.926;2023-03-14T14:59:27;6.00;99.90
46319;DHT22;32042;50.916;2.926;2023-03-14T15:02:03;6.00;99.90
46319;DHT22;32042;50.916;2.926;2023-03-14T15:04:31;6.00;99.90
46319;DHT22;32042;50.916;2.926;2023-03-14T15:06:57;6.10;99.90
46319;DHT22;32042;50.916;2.926;2023-03-14T15:09:23;6.10;99.90
46319;DHT22;32042;50.916;2.926;2023-03-14T15:11:50;6.20;99.90
46319;DHT22;32042;50.916;2.926;2023-03-14T15:14:16;6.20;99.90
46319;DHT22;32042;50.916;2.926;2023-03-14T15:16:41;6.10;99.90
46319;DHT22;32042;50.916;2.926;2023-03-14T15:19:24;6.10;99.90
46319;DHT22;32042;50.916;2.926;2023-03-14T15:21:52;6.20;99.90
46319;DHT22;32042;50.916;2.926;2023-03-14T15:24:18;6.20;99.90
46319;DHT22;32042;50.916;2.926;2023-03-14T15:26:44;6.10;99.90
46319;DHT22;32042;50.916;2.926;2023-03-14T15:29:11;6.20;99.90
46319;DHT22;32042;50.916;2.926;2023-03-14T15:31:38;6.20;99.90
46319;DHT22;32042;50.916;2.926;2023-03-14T15:34:04;6.20;99.90
46319;DHT22;32042;50.916;2.926;2023-03-14T15:36:32;6.30;99.90
46319;DHT22;32042;50.916;2.926;2023-03-14T15:38:59;6.40;99.90
46319;DHT22;32042;50.916;2.926;2023-03-14T15:41:26;6.50;99.90
46319;DHT22;32042;50.916;2.926;2023-03-14T15:43:52;6.60;99.90
46319;DHT22;32042;50.916;2.926;2023-03-14T15:46:18;6.50;99.90
46319;DHT22;32042;50.916;2.926;2023-03-14T15:48:47;6.50;99.90
46319;DHT22;32042;50.916;2.926;2023-03-14T15:51:13;6.50;99.90
46319;DHT22;32042;50.916;2.926;2023-03-14T15:53:39;6.50;99.90
46319;DHT22;32042;50.916;2.926;2023-03-14T15:56:07;6.60;99.90
46319;DHT22;32042;50.916;2.926;2023-03-14T15:58:33;6.70;99.90
46319;DHT22;32042;50.916;2.926;2023-03-14T16:01:02;6.80;99.90
46319;DHT22;32042;50.916;2.926;2023-03-14T16:03:29;6.90;99.90
46319;DHT22;32042;50.916;2.926;2023-03-14T16:05:55;7.10;99.90
46319;DHT22;32042;50.916;2.926;2023-03-14T16:08:22;7.10;99.90
46319;DHT22;32042;50.916;2.926;2023-03-14T16:10:48;7.10;99.90
46319;DHT22;32042;50.916;2.926;2023-03-14T16:13:14;7.00;99.90
46319;DHT22;32042;50.916;2.926;2023-03-14T16:15:40;7.10;99.90
46319;DHT22;32042;50.916;2.926;2023-03-14T16:18:05;7.00;99.90
46319;DHT22;32042;50.916;2.926;2023-03-14T16:20:31;7.00;99.90
46319;DHT22;32042;50.916;2.926;2023-03-14T16:22:57;7.10;99.90
46319;DHT22;32042;50.916;2.926;2023-03-14T16:25:23;7.10;99.90
46319;DHT22;32042;50.916;2.926;2023-03-14T16:27:48;7.10;99.90
46319;DHT22;32042;50.916;2.926;2023-03-14T16:30:15;7.00;99.90
46319;DHT22;32042;50.916;2.926;2023-03-14T16:32:40;6.90;99.90
46319;DHT22;32042;50.916;2.926;2023-03-14T16:35:06;6.90;99.90
46319;DHT22;32042;50.916;2.926;2023-03-14T16:37:32;7.00;99.90
46319;DHT22;32042;50.916;2.926;2023-03-14T16:39:58;7.00;99.90
46319;DHT22;32042;50.916;2.926;2023-03-14T16:42:24;7.10;99.90
46319;DHT22;32042;50.916;2.926;2023-03-14T16:44:49;7.20;99.90
46319;DHT22;32042;50.916;2.926;2023-03-14T16:47:15;7.30;99.90
46319;DHT22;32042;50.916;2.926;2023-03-14T16:49:41;7.40;99.90
46319;DHT22;32042;50.916;2.926;2023-03-14T16:52:07;7.40;99.90
46319;DHT22;32042;50.916;2.926;2023-03-14T16:54:34;7.40;99.90
46319;DHT22;32042;50.916;2.926;2023-03-14T16:57:00;7.30;99.90
46319;DHT22;32042;50.916;2.926;2023-03-14T16:59:25;7.30;99.90
46319;DHT22;32042;50.916;2.926;2023-03-14T17:01:54;7.20;99.90
46319;DHT22;32042;50.916;2.926;2023-03-14T17:04:20;7.20;99.90
46319;DHT22;32042;50.916;2.926;2023-03-14T17:06:46;7.20;99.90